createdAt,value
2017-12-06T00:04:41.783Z,1024.38
2017-12-06T00:09:38.259Z,1024.46
2017-12-06T00:14:34.854Z,1024.42
2017-12-06T00:19:31.351Z,1024.48
2017-12-06T00:24:26.479Z,1024.46
2017-12-06T00:29:22.294Z,1024.37
2017-12-06T00:34:18.063Z,1024.41
2017-12-06T00:39:15.568Z,1024.31
2017-12-06T00:44:11.139Z,1024.51
2017-12-06T00:49:06.734Z,1024.49
2017-12-06T00:54:02.556Z,1024.35
2017-12-06T00:58:58.673Z,1024.33
2017-12-06T01:03:55.552Z,1024.28
2017-12-06T01:08:51.076Z,1024.37
2017-12-06T01:13:46.614Z,1024.38
2017-12-06T01:18:42.611Z,1024.40
2017-12-06T01:23:39.317Z,1024.36
2017-12-06T01:28:34.585Z,1024.27
2017-12-06T01:33:31.817Z,1024.26
2017-12-06T01:38:27.335Z,1024.27
2017-12-06T01:43:23.258Z,1024.34
2017-12-06T01:48:18.914Z,1024.31
2017-12-06T01:53:14.602Z,1024.40
2017-12-06T01:58:10.546Z,1024.24
2017-12-06T02:03:06.408Z,1024.13
2017-12-06T02:08:02.137Z,1024.12
2017-12-06T02:12:58.091Z,1024.09
2017-12-06T02:17:54.791Z,1024.14
2017-12-06T02:22:50.409Z,1024.06
2017-12-06T02:27:46.051Z,1024.03
2017-12-06T02:32:41.824Z,1024.03
2017-12-06T02:37:37.449Z,1023.92
2017-12-06T02:42:33.817Z,1023.98
2017-12-06T02:47:29.231Z,1023.91
2017-12-06T02:52:24.982Z,1023.96
2017-12-06T02:57:20.751Z,1023.84
2017-12-06T03:02:16.559Z,1023.86
2017-12-06T03:07:12.554Z,1023.83
2017-12-06T03:12:08.119Z,1023.67
2017-12-06T03:17:03.846Z,1023.67
2017-12-06T03:21:59.620Z,1023.53
2017-12-06T03:26:55.258Z,1023.59
2017-12-06T03:31:51.055Z,1023.60
2017-12-06T03:36:47.044Z,1023.64
2017-12-06T03:41:43.051Z,1023.64
2017-12-06T03:46:39.768Z,1023.64
2017-12-06T03:51:35.216Z,1023.59
2017-12-06T03:56:31.676Z,1023.58
2017-12-06T04:01:27.510Z,1023.51
2017-12-06T04:06:25.124Z,1023.38
2017-12-06T04:11:22.084Z,1023.33
2017-12-06T04:16:19.236Z,1023.29
2017-12-06T04:21:14.749Z,1023.24
2017-12-06T04:26:11.076Z,1023.35
2017-12-06T04:31:07.234Z,1023.30
2017-12-06T04:36:03.921Z,1023.25
2017-12-06T04:40:59.382Z,1023.20
2017-12-06T04:45:55.914Z,1023.05
2017-12-06T04:50:52.473Z,1023.03
2017-12-06T04:55:47.899Z,1022.99
2017-12-06T05:00:44.597Z,1022.87
2017-12-06T05:05:40.346Z,1022.92
2017-12-06T05:10:36.044Z,1022.91
2017-12-06T05:15:31.726Z,1023.03
2017-12-06T05:20:28.563Z,1022.85
2017-12-06T05:25:25.097Z,1022.87
2017-12-06T05:30:20.468Z,1022.91
2017-12-06T05:35:18.499Z,1022.74
2017-12-06T05:40:13.682Z,1022.76
2017-12-06T05:45:09.563Z,1022.74
2017-12-06T05:50:05.294Z,1022.69
2017-12-06T05:55:00.834Z,1022.73
2017-12-06T05:59:56.578Z,1022.73
2017-12-06T06:04:52.284Z,1022.72
2017-12-06T06:09:48.279Z,1022.74
2017-12-06T06:14:43.815Z,1022.84
2017-12-06T06:19:39.614Z,1022.74
2017-12-06T06:24:35.701Z,1022.81
2017-12-06T06:29:31.808Z,1022.81
2017-12-06T06:34:28.512Z,1022.70
2017-12-06T06:39:23.807Z,1022.70
2017-12-06T06:44:19.655Z,1022.66
2017-12-06T06:49:15.271Z,1022.69
2017-12-06T06:54:11.183Z,1022.57
2017-12-06T06:59:06.781Z,1022.57
2017-12-06T07:04:03.526Z,1022.65
2017-12-06T07:08:58.588Z,1022.64
2017-12-06T07:13:54.237Z,1022.61
2017-12-06T07:18:50.991Z,1022.57
2017-12-06T07:23:46.694Z,1022.70
2017-12-06T07:28:42.547Z,1022.70
2017-12-06T07:33:38.247Z,1022.68
2017-12-06T07:38:33.781Z,1022.67
2017-12-06T07:43:29.525Z,1022.76
2017-12-06T07:48:25.377Z,1022.71
2017-12-06T07:53:21.328Z,1022.67
2017-12-06T07:58:18.115Z,1022.69
2017-12-06T08:03:14.670Z,1022.70
2017-12-06T08:08:10.379Z,1022.76
2017-12-06T08:13:07.390Z,1022.72
2017-12-06T08:18:03.959Z,1022.74
2017-12-06T08:22:59.557Z,1022.78
2017-12-06T08:27:55.115Z,1022.80
2017-12-06T08:32:51.446Z,1022.75
2017-12-06T08:37:47.165Z,1022.72
2017-12-06T08:42:44.217Z,1022.72
2017-12-06T08:47:39.974Z,1022.68
2017-12-06T08:52:36.733Z,1022.69
2017-12-06T08:57:32.258Z,1022.76
2017-12-06T09:02:28.009Z,1022.66
2017-12-06T09:07:23.665Z,1022.73
2017-12-06T09:12:19.592Z,1022.73
2017-12-06T09:17:15.572Z,1022.66
2017-12-06T09:22:12.606Z,1022.71
2017-12-06T09:27:09.347Z,1022.77
2017-12-06T09:32:05.835Z,1022.74
2017-12-06T09:37:01.293Z,1022.84
2017-12-06T09:41:57.051Z,1022.77
2017-12-06T09:46:52.830Z,1022.80
2017-12-06T09:51:49.759Z,1022.79
2017-12-06T09:56:45.276Z,1022.93
2017-12-06T10:01:41.539Z,1022.90
2017-12-06T10:06:37.665Z,1022.90
2017-12-06T10:11:33.377Z,1022.89
2017-12-06T10:16:29.735Z,1022.79
2017-12-06T10:21:25.822Z,1022.71
2017-12-06T10:26:22.929Z,1022.71
2017-12-06T10:31:19.179Z,1022.71
2017-12-06T10:36:16.824Z,1022.75
2017-12-06T10:41:13.012Z,1022.56
2017-12-06T10:46:08.580Z,1022.49
2017-12-06T10:51:03.974Z,1022.54
2017-12-06T10:55:59.720Z,1022.55
2017-12-06T11:00:56.358Z,1022.53
2017-12-06T11:05:53.354Z,1022.50
2017-12-06T11:10:48.896Z,1022.48
2017-12-06T11:15:46.122Z,1022.51
2017-12-06T11:20:42.374Z,1022.45
2017-12-06T11:25:38.131Z,1022.30
2017-12-06T11:30:33.993Z,1022.33
2017-12-06T11:35:29.897Z,1022.29
2017-12-06T11:40:25.800Z,1022.26
2017-12-06T11:45:22.468Z,1022.30
2017-12-06T11:50:18.221Z,1022.33
2017-12-06T11:55:14.149Z,1022.33
2017-12-06T12:00:09.886Z,1022.28
2017-12-06T12:05:06.035Z,1022.32
2017-12-06T12:10:03.059Z,1022.32
2017-12-06T12:14:58.901Z,1022.25
2017-12-06T12:19:54.204Z,1022.30
2017-12-06T12:24:50.103Z,1022.15
2017-12-06T12:29:46.486Z,1022.12
2017-12-06T12:34:42.415Z,1022.00
2017-12-06T12:39:38.268Z,1021.96
2017-12-06T12:44:34.088Z,1021.88
2017-12-06T12:49:30.059Z,1021.93
2017-12-06T12:54:27.199Z,1021.84
2017-12-06T12:59:22.663Z,1021.89
2017-12-06T13:04:19.524Z,1021.81
2017-12-06T13:09:15.123Z,1021.80
2017-12-06T13:14:12.032Z,1021.72
2017-12-06T13:19:07.590Z,1021.70
2017-12-06T13:24:04.304Z,1021.67
2017-12-06T13:28:59.817Z,1021.66
2017-12-06T13:33:55.562Z,1021.63
2017-12-06T13:38:51.409Z,1021.49
2017-12-06T13:43:47.578Z,1021.63
2017-12-06T13:48:44.187Z,1021.46
2017-12-06T13:53:39.838Z,1021.49
2017-12-06T13:58:36.420Z,1021.45
2017-12-06T14:03:31.863Z,1021.30
2017-12-06T14:08:29.625Z,1021.30
2017-12-06T14:13:25.911Z,1021.33
2017-12-06T14:18:21.383Z,1021.31
2017-12-06T14:23:18.061Z,1021.19
2017-12-06T14:28:13.471Z,1021.18
2017-12-06T14:33:09.162Z,1021.29
2017-12-06T14:38:04.860Z,1021.28
2017-12-06T14:43:01.147Z,1021.26
2017-12-06T14:47:58.299Z,1021.19
2017-12-06T14:52:54.205Z,1021.20
2017-12-06T14:57:50.203Z,1021.10
2017-12-06T15:02:45.911Z,1021.06
2017-12-06T15:07:41.710Z,1021.12
2017-12-06T15:12:38.217Z,1020.98
2017-12-06T15:17:33.860Z,1021.08
2017-12-06T15:22:29.733Z,1021.03
2017-12-06T15:27:26.629Z,1021.00
2017-12-06T15:32:23.208Z,1021.06
2017-12-06T15:37:18.545Z,1020.98
2017-12-06T15:42:14.475Z,1020.92
2017-12-06T15:47:10.246Z,1020.90
2017-12-06T15:52:06.216Z,1020.88
2017-12-06T15:57:02.023Z,1020.84
2017-12-06T16:01:58.525Z,1020.83
2017-12-06T16:06:55.001Z,1020.82
2017-12-06T16:11:51.214Z,1020.73
2017-12-06T16:16:46.809Z,1020.68
2017-12-06T16:21:42.666Z,1020.71
2017-12-06T16:26:38.435Z,1020.61
2017-12-06T16:31:34.246Z,1020.64
2017-12-06T16:36:30.168Z,1020.64
2017-12-06T16:41:25.886Z,1020.62
2017-12-06T16:46:21.580Z,1020.53
2017-12-06T16:51:18.434Z,1020.51
2017-12-06T16:56:14.170Z,1020.51
2017-12-06T17:01:09.902Z,1020.42
2017-12-06T17:06:06.029Z,1020.37
2017-12-06T17:11:01.882Z,1020.29
2017-12-06T17:15:57.721Z,1020.33
2017-12-06T17:20:53.711Z,1020.29
2017-12-06T17:25:49.122Z,1020.18
2017-12-06T17:30:44.860Z,1020.27
2017-12-06T17:35:40.771Z,1020.13
2017-12-06T17:40:36.508Z,1020.22
2017-12-06T17:45:33.281Z,1020.12
2017-12-06T17:50:28.883Z,1020.05
2017-12-06T17:55:26.038Z,1020.07
2017-12-06T18:00:22.553Z,1020.00
2017-12-06T18:05:18.531Z,1019.90
2017-12-06T18:10:15.842Z,1019.92
2017-12-06T18:15:11.262Z,1019.95
2017-12-06T18:20:07.083Z,1019.94
2017-12-06T18:25:03.687Z,1019.81
2017-12-06T18:29:59.333Z,1019.86
2017-12-06T18:34:55.029Z,1019.83
2017-12-06T18:39:50.798Z,1019.77
2017-12-06T18:44:47.590Z,1019.67
2017-12-06T18:49:43.250Z,1019.67
2017-12-06T18:54:39.721Z,1019.68
2017-12-06T18:59:35.521Z,1019.64
2017-12-06T19:04:31.876Z,1019.57
2017-12-06T19:09:27.611Z,1019.57
2017-12-06T19:14:23.370Z,1019.62
2017-12-06T19:19:19.241Z,1019.53
2017-12-06T19:24:16.683Z,1019.53
2017-12-06T19:29:12.598Z,1019.49
2017-12-06T19:34:09.105Z,1019.47
2017-12-06T19:39:05.669Z,1019.33
2017-12-06T19:44:01.255Z,1019.29
2017-12-06T19:48:58.987Z,1019.30
2017-12-06T19:53:54.589Z,1019.20
2017-12-06T19:58:50.437Z,1019.09
2017-12-06T20:03:46.260Z,1019.04
2017-12-06T20:08:42.113Z,1019.01
2017-12-06T20:13:37.898Z,1018.99
2017-12-06T20:18:33.661Z,1019.00
2017-12-06T20:23:30.626Z,1018.99
2017-12-06T20:28:27.087Z,1018.83
2017-12-06T20:33:22.367Z,1018.82
2017-12-06T20:38:19.653Z,1018.78
2017-12-06T20:43:15.076Z,1018.89
2017-12-06T20:48:11.293Z,1018.78
2017-12-06T20:53:06.923Z,1018.78
2017-12-06T20:58:03.750Z,1018.63
2017-12-06T21:02:59.272Z,1018.60
2017-12-06T21:07:56.838Z,1018.64
2017-12-06T21:12:52.283Z,1018.55
2017-12-06T21:17:48.125Z,1018.51
2017-12-06T21:22:43.772Z,1018.40
2017-12-06T21:27:41.613Z,1018.48
2017-12-06T21:32:36.815Z,1018.47
2017-12-06T21:37:33.794Z,1018.29
2017-12-06T21:42:30.478Z,1018.39
2017-12-06T21:47:27.002Z,1018.19
2017-12-06T21:52:23.418Z,1018.14
2017-12-06T21:57:19.930Z,1018.12
2017-12-06T22:02:16.409Z,1018.05
2017-12-06T22:07:13.924Z,1017.99
2017-12-06T22:12:09.183Z,1017.88
2017-12-06T22:17:04.884Z,1017.86
2017-12-06T22:22:00.826Z,1017.94
2017-12-06T22:26:56.617Z,1017.80
2017-12-06T22:31:53.212Z,1017.75
2017-12-06T22:36:49.834Z,1017.80
2017-12-06T22:41:46.435Z,1017.68
2017-12-06T22:46:42.009Z,1017.61
2017-12-06T22:51:37.601Z,1017.62
2017-12-06T22:56:33.799Z,1017.56
2017-12-06T23:01:29.657Z,1017.36
2017-12-06T23:06:26.322Z,1017.62
2017-12-06T23:11:23.212Z,1017.30
2017-12-06T23:16:19.049Z,1017.33
2017-12-06T23:21:15.879Z,1017.31
2017-12-06T23:26:11.299Z,1017.22
2017-12-06T23:31:08.052Z,1017.20
2017-12-06T23:36:05.312Z,1017.07
2017-12-06T23:41:00.865Z,1017.02
2017-12-06T23:45:57.817Z,1017.11
2017-12-06T23:50:53.338Z,1016.91
2017-12-06T23:55:48.778Z,1016.80
